sensor_id;sensor_type;location;lat;lon;timestamp;temperature;humidity
5808;DHT22;2930;42.678;23.312;2022-12-10T00:01:10;10.00;89.50
5808;DHT22;2930;42.678;23.312;2022-12-10T00:03:36;10.00;89.70
5808;DHT22;2930;42.678;23.312;2022-12-10T00:06:03;10.00;89.60
5808;DHT22;2930;42.678;23.312;2022-12-10T00:08:30;10.10;89.70
5808;DHT22;2930;42.678;23.312;2022-12-10T00:10:56;10.00;89.90
5808;DHT22;2930;42.678;23.312;2022-12-10T00:13:23;10.00;89.60
5808;DHT22;2930;42.678;23.312;2022-12-10T00:15:49;10.00;89.60
5808;DHT22;2930;42.678;23.312;2022-12-10T00:18:15;10.00;89.70
5808;DHT22;2930;42.678;23.312;2022-12-10T00:20:40;10.00;89.90
5808;DHT22;2930;42.678;23.312;2022-12-10T00:23:06;10.00;89.60
5808;DHT22;2930;42.678;23.312;2022-12-10T00:25:32;9.90;89.50
5808;DHT22;2930;42.678;23.312;2022-12-10T00:27:58;10.00;90.00
5808;DHT22;2930;42.678;23.312;2022-12-10T00:30:24;9.90;90.20
5808;DHT22;2930;42.678;23.312;2022-12-10T00:32:50;9.90;90.00
5808;DHT22;2930;42.678;23.312;2022-12-10T00:37:41;9.90;90.30
5808;DHT22;2930;42.678;23.312;2022-12-10T00:40:08;10.00;90.30
5808;DHT22;2930;42.678;23.312;2022-12-10T00:42:33;9.90;90.00
5808;DHT22;2930;42.678;23.312;2022-12-10T00:44:59;9.90;90.20
5808;DHT22;2930;42.678;23.312;2022-12-10T00:47:25;9.90;90.00
5808;DHT22;2930;42.678;23.312;2022-12-10T00:49:50;10.00;90.30
5808;DHT22;2930;42.678;23.312;2022-12-10T00:52:16;10.00;90.30
5808;DHT22;2930;42.678;23.312;2022-12-10T00:54:42;10.00;90.10
5808;DHT22;2930;42.678;23.312;2022-12-10T00:57:07;10.00;90.10
5808;DHT22;2930;42.678;23.312;2022-12-10T00:59:33;10.00;90.00
5808;DHT22;2930;42.678;23.312;2022-12-10T01:01:59;10.00;90.40
5808;DHT22;2930;42.678;23.312;2022-12-10T01:04:24;10.00;90.10
5808;DHT22;2930;42.678;23.312;2022-12-10T01:06:53;10.00;90.30
5808;DHT22;2930;42.678;23.312;2022-12-10T01:09:23;10.00;90.50
5808;DHT22;2930;42.678;23.312;2022-12-10T01:11:51;10.00;90.60
5808;DHT22;2930;42.678;23.312;2022-12-10T01:14:24;10.00;90.60
5808;DHT22;2930;42.678;23.312;2022-12-10T01:16:52;10.00;90.40
5808;DHT22;2930;42.678;23.312;2022-12-10T01:19:19;10.00;90.70
5808;DHT22;2930;42.678;23.312;2022-12-10T01:21:44;10.00;90.60
5808;DHT22;2930;42.678;23.312;2022-12-10T01:24:10;10.10;90.60
5808;DHT22;2930;42.678;23.312;2022-12-10T01:26:36;10.00;90.90
5808;DHT22;2930;42.678;23.312;2022-12-10T01:29:03;10.00;90.50
5808;DHT22;2930;42.678;23.312;2022-12-10T01:31:32;10.10;90.60
5808;DHT22;2930;42.678;23.312;2022-12-10T01:33:58;10.10;90.60
5808;DHT22;2930;42.678;23.312;2022-12-10T01:36:30;10.10;90.80
5808;DHT22;2930;42.678;23.312;2022-12-10T01:38:56;10.10;90.80
5808;DHT22;2930;42.678;23.312;2022-12-10T01:41:31;10.10;90.70
5808;DHT22;2930;42.678;23.312;2022-12-10T01:44:00;10.10;90.60
5808;DHT22;2930;42.678;23.312;2022-12-10T01:46:40;10.10;90.90
5808;DHT22;2930;42.678;23.312;2022-12-10T01:49:14;10.20;90.80
5808;DHT22;2930;42.678;23.312;2022-12-10T01:51:41;10.20;90.60
5808;DHT22;2930;42.678;23.312;2022-12-10T01:54:11;10.20;90.60
5808;DHT22;2930;42.678;23.312;2022-12-10T01:56:40;10.20;90.60
5808;DHT22;2930;42.678;23.312;2022-12-10T01:59:07;10.20;90.40
5808;DHT22;2930;42.678;23.312;2022-12-10T02:06:58;10.20;90.40
5808;DHT22;2930;42.678;23.312;2022-12-10T02:09:57;10.30;90.20
5808;DHT22;2930;42.678;23.312;2022-12-10T02:12:45;10.30;90.30
5808;DHT22;2930;42.678;23.312;2022-12-10T02:15:18;10.40;90.20
5808;DHT22;2930;42.678;23.312;2022-12-10T02:18:11;10.40;90.20
5808;DHT22;2930;42.678;23.312;2022-12-10T02:20:45;10.50;90.10
5808;DHT22;2930;42.678;23.312;2022-12-10T02:23:21;10.50;90.20
5808;DHT22;2930;42.678;23.312;2022-12-10T02:26:01;10.50;90.10
5808;DHT22;2930;42.678;23.312;2022-12-10T02:31:00;10.50;90.00
5808;DHT22;2930;42.678;23.312;2022-12-10T02:33:28;10.60;90.00
5808;DHT22;2930;42.678;23.312;2022-12-10T02:35:56;10.60;90.20
5808;DHT22;2930;42.678;23.312;2022-12-10T02:38:31;10.60;90.10
5808;DHT22;2930;42.678;23.312;2022-12-10T02:41:02;10.60;90.00
5808;DHT22;2930;42.678;23.312;2022-12-10T02:43:30;10.70;90.00
5808;DHT22;2930;42.678;23.312;2022-12-10T02:45:58;10.60;89.90
5808;DHT22;2930;42.678;23.312;2022-12-10T02:48:25;10.60;90.00
5808;DHT22;2930;42.678;23.312;2022-12-10T02:50:51;10.70;89.90
5808;DHT22;2930;42.678;23.312;2022-12-10T02:53:17;10.60;89.90
5808;DHT22;2930;42.678;23.312;2022-12-10T02:55:56;10.60;89.80
5808;DHT22;2930;42.678;23.312;2022-12-10T03:01:07;10.70;89.60
5808;DHT22;2930;42.678;23.312;2022-12-10T03:03:52;10.60;89.80
5808;DHT22;2930;42.678;23.312;2022-12-10T03:06:35;10.70;90.20
5808;DHT22;2930;42.678;23.312;2022-12-10T03:09:17;10.60;90.10
5808;DHT22;2930;42.678;23.312;2022-12-10T03:11:46;10.60;89.90
5808;DHT22;2930;42.678;23.312;2022-12-10T03:14:25;10.70;90.30
5808;DHT22;2930;42.678;23.312;2022-12-10T03:16:58;10.70;90.10
5808;DHT22;2930;42.678;23.312;2022-12-10T03:19:59;10.60;90.00
5808;DHT22;2930;42.678;23.312;2022-12-10T03:22:20;10.60;90.10
5808;DHT22;2930;42.678;23.312;2022-12-10T03:24:46;10.60;90.00
5808;DHT22;2930;42.678;23.312;2022-12-10T03:27:14;10.60;90.30
5808;DHT22;2930;42.678;23.312;2022-12-10T03:29:49;10.60;90.20
5808;DHT22;2930;42.678;23.312;2022-12-10T03:32:16;10.60;90.00
5808;DHT22;2930;42.678;23.312;2022-12-10T03:34:44;10.60;90.10
5808;DHT22;2930;42.678;23.312;2022-12-10T03:37:11;10.70;90.00
5808;DHT22;2930;42.678;23.312;2022-12-10T03:39:38;10.70;90.40
5808;DHT22;2930;42.678;23.312;2022-12-10T03:42:05;10.70;90.00
5808;DHT22;2930;42.678;23.312;2022-12-10T03:44:33;10.70;90.20
5808;DHT22;2930;42.678;23.312;2022-12-10T03:47:01;10.80;90.20
5808;DHT22;2930;42.678;23.312;2022-12-10T03:49:27;10.80;90.00
5808;DHT22;2930;42.678;23.312;2022-12-10T03:51:53;10.80;90.20
5808;DHT22;2930;42.678;23.312;2022-12-10T03:54:19;10.80;90.20
5808;DHT22;2930;42.678;23.312;2022-12-10T03:56:45;10.80;90.20
5808;DHT22;2930;42.678;23.312;2022-12-10T03:59:11;10.80;90.20
5808;DHT22;2930;42.678;23.312;2022-12-10T04:01:36;10.80;90.20
5808;DHT22;2930;42.678;23.312;2022-12-10T04:04:05;10.80;90.40
5808;DHT22;2930;42.678;23.312;2022-12-10T04:06:31;10.80;90.20
5808;DHT22;2930;42.678;23.312;2022-12-10T04:08:57;10.80;90.20
5808;DHT22;2930;42.678;23.312;2022-12-10T04:11:23;10.80;90.20
5808;DHT22;2930;42.678;23.312;2022-12-10T04:13:50;10.80;90.00
5808;DHT22;2930;42.678;23.312;2022-12-10T04:16:35;10.90;90.20
5808;DHT22;2930;42.678;23.312;2022-12-10T04:19:06;10.90;90.50
5808;DHT22;2930;42.678;23.312;2022-12-10T04:21:34;10.90;90.20
5808;DHT22;2930;42.678;23.312;2022-12-10T04:24:22;11.00;90.40
5808;DHT22;2930;42.678;23.312;2022-12-10T04:27:20;11.00;90.30
5808;DHT22;2930;42.678;23.312;2022-12-10T04:29:47;11.00;90.30
5808;DHT22;2930;42.678;23.312;2022-12-10T04:32:12;11.00;90.30
5808;DHT22;2930;42.678;23.312;2022-12-10T04:34:38;11.10;90.40
5808;DHT22;2930;42.678;23.312;2022-12-10T04:37:04;11.10;90.50
5808;DHT22;2930;42.678;23.312;2022-12-10T04:39:30;11.20;90.50
5808;DHT22;2930;42.678;23.312;2022-12-10T04:41:57;11.10;90.30
5808;DHT22;2930;42.678;23.312;2022-12-10T04:44:24;11.20;90.60
5808;DHT22;2930;42.678;23.312;2022-12-10T04:46:50;11.20;90.50
5808;DHT22;2930;42.678;23.312;2022-12-10T04:49:16;11.10;92.20
5808;DHT22;2930;42.678;23.312;2022-12-10T04:51:42;11.10;91.90
5808;DHT22;2930;42.678;23.312;2022-12-10T04:54:08;11.10;91.80
5808;DHT22;2930;42.678;23.312;2022-12-10T04:56:34;11.10;92.10
5808;DHT22;2930;42.678;23.312;2022-12-10T04:59:00;11.00;92.10
5808;DHT22;2930;42.678;23.312;2022-12-10T05:01:28;11.00;91.70
5808;DHT22;2930;42.678;23.312;2022-12-10T05:03:53;11.00;91.70
5808;DHT22;2930;42.678;23.312;2022-12-10T05:06:19;11.00;91.70
5808;DHT22;2930;42.678;23.312;2022-12-10T05:08:45;11.00;92.10
5808;DHT22;2930;42.678;23.312;2022-12-10T05:11:16;11.00;92.40
5808;DHT22;2930;42.678;23.312;2022-12-10T05:13:43;11.00;92.50
5808;DHT22;2930;42.678;23.312;2022-12-10T05:16:11;11.00;92.10
5808;DHT22;2930;42.678;23.312;2022-12-10T05:18:37;11.10;92.70
5808;DHT22;2930;42.678;23.312;2022-12-10T05:21:06;11.10;92.80
5808;DHT22;2930;42.678;23.312;2022-12-10T05:23:35;11.00;92.80
5808;DHT22;2930;42.678;23.312;2022-12-10T05:26:10;10.90;92.50
5808;DHT22;2930;42.678;23.312;2022-12-10T05:28:45;10.90;92.40
5808;DHT22;2930;42.678;23.312;2022-12-10T05:31:13;10.90;92.40
5808;DHT22;2930;42.678;23.312;2022-12-10T05:33:39;11.00;93.10
5808;DHT22;2930;42.678;23.312;2022-12-10T05:36:05;11.00;93.30
5808;DHT22;2930;42.678;23.312;2022-12-10T05:38:32;11.00;92.60
5808;DHT22;2930;42.678;23.312;2022-12-10T05:41:11;11.00;92.90
5808;DHT22;2930;42.678;23.312;2022-12-10T05:43:37;11.00;93.20
5808;DHT22;2930;42.678;23.312;2022-12-10T05:46:05;11.00;93.20
5808;DHT22;2930;42.678;23.312;2022-12-10T05:48:31;11.00;92.80
5808;DHT22;2930;42.678;23.312;2022-12-10T05:50:57;11.00;92.60
5808;DHT22;2930;42.678;23.312;2022-12-10T05:53:24;10.90;92.50
5808;DHT22;2930;42.678;23.312;2022-12-10T05:55:50;11.00;93.40
5808;DHT22;2930;42.678;23.312;2022-12-10T05:58:24;11.00;93.30
5808;DHT22;2930;42.678;23.312;2022-12-10T06:00:49;11.00;92.80
5808;DHT22;2930;42.678;23.312;2022-12-10T06:03:15;11.00;92.80
5808;DHT22;2930;42.678;23.312;2022-12-10T06:05:41;11.00;93.70
5808;DHT22;2930;42.678;23.312;2022-12-10T06:08:07;11.00;94.60
5808;DHT22;2930;42.678;23.312;2022-12-10T06:10:36;10.90;94.40
5808;DHT22;2930;42.678;23.312;2022-12-10T06:13:03;10.90;94.20
5808;DHT22;2930;42.678;23.312;2022-12-10T06:15:30;10.90;94.50
5808;DHT22;2930;42.678;23.312;2022-12-10T06:17:56;10.90;94.50
5808;DHT22;2930;42.678;23.312;2022-12-10T06:20:22;10.90;94.70
5808;DHT22;2930;42.678;23.312;2022-12-10T06:22:48;11.00;94.50
5808;DHT22;2930;42.678;23.312;2022-12-10T06:25:14;10.90;94.20
5808;DHT22;2930;42.678;23.312;2022-12-10T06:27:40;11.00;94.80
5808;DHT22;2930;42.678;23.312;2022-12-10T06:30:06;11.00;94.60
5808;DHT22;2930;42.678;23.312;2022-12-10T06:32:32;11.00;94.10
5808;DHT22;2930;42.678;23.312;2022-12-10T06:34:58;11.00;94.50
5808;DHT22;2930;42.678;23.312;2022-12-10T06:37:24;11.10;94.80
5808;DHT22;2930;42.678;23.312;2022-12-10T06:39:52;11.00;94.50
5808;DHT22;2930;42.678;23.312;2022-12-10T06:42:21;11.00;94.20
5808;DHT22;2930;42.678;23.312;2022-12-10T06:44:47;11.10;94.80
5808;DHT22;2930;42.678;23.312;2022-12-10T06:47:13;11.00;95.10
5808;DHT22;2930;42.678;23.312;2022-12-10T06:49:40;11.00;95.50
5808;DHT22;2930;42.678;23.312;2022-12-10T06:52:06;11.00;94.90
5808;DHT22;2930;42.678;23.312;2022-12-10T06:54:32;11.00;94.70
5808;DHT22;2930;42.678;23.312;2022-12-10T06:56:58;11.00;95.00
5808;DHT22;2930;42.678;23.312;2022-12-10T06:59:24;11.10;95.60
5808;DHT22;2930;42.678;23.312;2022-12-10T07:01:50;11.20;95.20
5808;DHT22;2930;42.678;23.312;2022-12-10T07:04:16;11.20;95.10
5808;DHT22;2930;42.678;23.312;2022-12-10T07:06:42;11.20;95.10
5808;DHT22;2930;42.678;23.312;2022-12-10T07:09:08;11.20;95.00
5808;DHT22;2930;42.678;23.312;2022-12-10T07:11:35;11.30;95.00
5808;DHT22;2930;42.678;23.312;2022-12-10T07:14:02;11.30;94.80
5808;DHT22;2930;42.678;23.312;2022-12-10T07:16:29;11.40;95.30
5808;DHT22;2930;42.678;23.312;2022-12-10T07:18:57;11.40;94.90
5808;DHT22;2930;42.678;23.312;2022-12-10T07:21:26;11.40;94.40
5808;DHT22;2930;42.678;23.312;2022-12-10T07:23:53;11.40;94.20
5808;DHT22;2930;42.678;23.312;2022-12-10T07:26:20;11.50;94.10
5808;DHT22;2930;42.678;23.312;2022-12-10T07:28:46;11.50;94.40
5808;DHT22;2930;42.678;23.312;2022-12-10T07:31:12;11.60;94.50
5808;DHT22;2930;42.678;23.312;2022-12-10T07:33:38;11.60;94.30
5808;DHT22;2930;42.678;23.312;2022-12-10T07:36:09;11.60;94.00
5808;DHT22;2930;42.678;23.312;2022-12-10T07:38:36;11.70;93.80
5808;DHT22;2930;42.678;23.312;2022-12-10T07:41:04;11.70;93.80
5808;DHT22;2930;42.678;23.312;2022-12-10T07:43:30;11.80;94.20
5808;DHT22;2930;42.678;23.312;2022-12-10T07:45:55;11.80;93.90
5808;DHT22;2930;42.678;23.312;2022-12-10T07:48:21;11.90;94.30
5808;DHT22;2930;42.678;23.312;2022-12-10T07:50:47;12.00;94.00
5808;DHT22;2930;42.678;23.312;2022-12-10T07:53:20;11.90;93.70
5808;DHT22;2930;42.678;23.312;2022-12-10T07:55:46;11.90;93.60
5808;DHT22;2930;42.678;23.312;2022-12-10T07:58:11;11.90;93.60
5808;DHT22;2930;42.678;23.312;2022-12-10T08:00:37;11.90;93.60
5808;DHT22;2930;42.678;23.312;2022-12-10T08:03:03;12.00;93.70
5808;DHT22;2930;42.678;23.312;2022-12-10T08:05:28;12.00;93.80
5808;DHT22;2930;42.678;23.312;2022-12-10T08:07:54;12.10;94.10
5808;DHT22;2930;42.678;23.312;2022-12-10T08:10:20;12.10;93.50
5808;DHT22;2930;42.678;23.312;2022-12-10T08:12:45;12.20;93.40
5808;DHT22;2930;42.678;23.312;2022-12-10T08:15:11;12.20;93.40
5808;DHT22;2930;42.678;23.312;2022-12-10T08:17:37;12.30;93.40
5808;DHT22;2930;42.678;23.312;2022-12-10T08:20:02;12.40;93.30
5808;DHT22;2930;42.678;23.312;2022-12-10T08:22:28;12.50;93.30
5808;DHT22;2930;42.678;23.312;2022-12-10T08:24:54;12.50;93.20
5808;DHT22;2930;42.678;23.312;2022-12-10T08:27:20;12.60;93.40
5808;DHT22;2930;42.678;23.312;2022-12-10T08:29:45;12.70;93.10
5808;DHT22;2930;42.678;23.312;2022-12-10T08:32:11;12.80;93.40
5808;DHT22;2930;42.678;23.312;2022-12-10T08:34:37;12.90;92.70
5808;DHT22;2930;42.678;23.312;2022-12-10T08:37:03;12.90;92.80
5808;DHT22;2930;42.678;23.312;2022-12-10T08:39:29;13.00;92.70
5808;DHT22;2930;42.678;23.312;2022-12-10T08:41:55;13.00;93.00
5808;DHT22;2930;42.678;23.312;2022-12-10T08:44:20;13.10;92.90
5808;DHT22;2930;42.678;23.312;2022-12-10T08:46:46;13.20;92.60
5808;DHT22;2930;42.678;23.312;2022-12-10T08:51:38;13.30;92.20
5808;DHT22;2930;42.678;23.312;2022-12-10T08:54:04;13.30;92.60
5808;DHT22;2930;42.678;23.312;2022-12-10T08:56:30;13.40;92.30
5808;DHT22;2930;42.678;23.312;2022-12-10T08:58:56;13.50;92.60
5808;DHT22;2930;42.678;23.312;2022-12-10T09:01:22;13.60;92.40
5808;DHT22;2930;42.678;23.312;2022-12-10T09:03:48;13.70;92.50
5808;DHT22;2930;42.678;23.312;2022-12-10T09:06:15;13.80;92.30
5808;DHT22;2930;42.678;23.312;2022-12-10T09:08:42;13.90;92.00
5808;DHT22;2930;42.678;23.312;2022-12-10T09:11:32;13.90;91.90
5808;DHT22;2930;42.678;23.312;2022-12-10T09:13:58;14.00;91.50
5808;DHT22;2930;42.678;23.312;2022-12-10T09:16:32;14.10;91.30
5808;DHT22;2930;42.678;23.312;2022-12-10T09:18:58;14.30;91.60
5808;DHT22;2930;42.678;23.312;2022-12-10T09:21:24;14.50;92.20
5808;DHT22;2930;42.678;23.312;2022-12-10T09:23:51;14.80;92.00
5808;DHT22;2930;42.678;23.312;2022-12-10T09:26:18;15.00;91.70
5808;DHT22;2930;42.678;23.312;2022-12-10T09:28:44;15.30;90.20
5808;DHT22;2930;42.678;23.312;2022-12-10T09:31:11;15.40;89.80
5808;DHT22;2930;42.678;23.312;2022-12-10T09:33:38;15.50;89.40
5808;DHT22;2930;42.678;23.312;2022-12-10T09:36:06;15.60;89.30
5808;DHT22;2930;42.678;23.312;2022-12-10T09:38:34;15.70;88.90
5808;DHT22;2930;42.678;23.312;2022-12-10T09:41:10;15.80;88.20
5808;DHT22;2930;42.678;23.312;2022-12-10T09:43:51;16.10;88.90
5808;DHT22;2930;42.678;23.312;2022-12-10T09:49:19;17.20;85.50
5808;DHT22;2930;42.678;23.312;2022-12-10T09:51:47;17.20;85.40
5808;DHT22;2930;42.678;23.312;2022-12-10T09:54:22;17.60;85.90
5808;DHT22;2930;42.678;23.312;2022-12-10T09:56:50;18.10;85.10
5808;DHT22;2930;42.678;23.312;2022-12-10T09:59:32;18.60;83.60
5808;DHT22;2930;42.678;23.312;2022-12-10T10:04:44;19.30;80.20
5808;DHT22;2930;42.678;23.312;2022-12-10T10:07:30;19.70;80.70
5808;DHT22;2930;42.678;23.312;2022-12-10T10:10:00;20.20;79.80
5808;DHT22;2930;42.678;23.312;2022-12-10T10:12:28;20.70;78.10
5808;DHT22;2930;42.678;23.312;2022-12-10T10:14:54;21.20;75.90
5808;DHT22;2930;42.678;23.312;2022-12-10T10:17:29;21.70;75.80
5808;DHT22;2930;42.678;23.312;2022-12-10T10:19:57;22.10;75.40
5808;DHT22;2930;42.678;23.312;2022-12-10T10:22:22;22.30;73.50
5808;DHT22;2930;42.678;23.312;2022-12-10T10:24:48;22.50;72.70
5808;DHT22;2930;42.678;23.312;2022-12-10T10:27:20;22.60;73.20
5808;DHT22;2930;42.678;23.312;2022-12-10T10:29:51;22.70;73.10
5808;DHT22;2930;42.678;23.312;2022-12-10T10:32:24;22.80;70.50
5808;DHT22;2930;42.678;23.312;2022-12-10T10:34:58;22.90;72.80
5808;DHT22;2930;42.678;23.312;2022-12-10T10:39:59;23.20;71.30
5808;DHT22;2930;42.678;23.312;2022-12-10T10:42:38;23.30;71.10
5808;DHT22;2930;42.678;23.312;2022-12-10T10:48:16;23.40;67.80
5808;DHT22;2930;42.678;23.312;2022-12-10T10:50:55;23.30;68.80
5808;DHT22;2930;42.678;23.312;2022-12-10T10:55:47;22.90;70.80
5808;DHT22;2930;42.678;23.312;2022-12-10T10:58:20;22.80;70.50
5808;DHT22;2930;42.678;23.312;2022-12-10T11:00:59;22.90;72.20
5808;DHT22;2930;42.678;23.312;2022-12-10T11:03:27;23.00;71.20
5808;DHT22;2930;42.678;23.312;2022-12-10T11:05:56;23.00;70.40
5808;DHT22;2930;42.678;23.312;2022-12-10T11:08:25;22.80;69.90
5808;DHT22;2930;42.678;23.312;2022-12-10T11:10:55;22.70;70.80
5808;DHT22;2930;42.678;23.312;2022-12-10T11:13:26;22.70;71.20
5808;DHT22;2930;42.678;23.312;2022-12-10T11:15:57;22.70;71.10
5808;DHT22;2930;42.678;23.312;2022-12-10T11:23:42;22.60;71.10
5808;DHT22;2930;42.678;23.312;2022-12-10T11:48:51;21.90;71.50
5808;DHT22;2930;42.678;23.312;2022-12-10T11:51:41;21.80;70.90
5808;DHT22;2930;42.678;23.312;2022-12-10T12:00:01;21.60;70.10
5808;DHT22;2930;42.678;23.312;2022-12-10T12:11:25;20.80;71.90
5808;DHT22;2930;42.678;23.312;2022-12-10T12:14:22;20.60;71.60
5808;DHT22;2930;42.678;23.312;2022-12-10T12:20:08;20.20;73.50
5808;DHT22;2930;42.678;23.312;2022-12-10T12:22:26;20.00;73.00
5808;DHT22;2930;42.678;23.312;2022-12-10T12:25:05;20.00;73.80
5808;DHT22;2930;42.678;23.312;2022-12-10T12:27:45;19.80;72.80
5808;DHT22;2930;42.678;23.312;2022-12-10T12:30:17;19.50;74.10
5808;DHT22;2930;42.678;23.312;2022-12-10T12:44:00;18.40;76.60
5808;DHT22;2930;42.678;23.312;2022-12-10T12:46:38;18.20;76.60
5808;DHT22;2930;42.678;23.312;2022-12-10T12:49:34;18.10;76.80
5808;DHT22;2930;42.678;23.312;2022-12-10T12:52:10;18.00;77.00
5808;DHT22;2930;42.678;23.312;2022-12-10T12:54:40;18.00;76.80
5808;DHT22;2930;42.678;23.312;2022-12-10T13:00:08;17.60;77.30
5808;DHT22;2930;42.678;23.312;2022-12-10T13:02:57;17.50;78.00
5808;DHT22;2930;42.678;23.312;2022-12-10T13:05:30;17.40;77.80
5808;DHT22;2930;42.678;23.312;2022-12-10T13:08:28;17.30;78.30
5808;DHT22;2930;42.678;23.312;2022-12-10T13:13:41;17.10;78.80
5808;DHT22;2930;42.678;23.312;2022-12-10T13:22:11;16.80;79.80
5808;DHT22;2930;42.678;23.312;2022-12-10T13:32:44;16.50;80.40
5808;DHT22;2930;42.678;23.312;2022-12-10T13:42:44;16.30;81.10
5808;DHT22;2930;42.678;23.312;2022-12-10T13:45:34;16.20;80.80
5808;DHT22;2930;42.678;23.312;2022-12-10T14:00:06;16.00;82.30
5808;DHT22;2930;42.678;23.312;2022-12-10T14:08:28;15.70;82.40
5808;DHT22;2930;42.678;23.312;2022-12-10T14:10:56;15.70;83.00
5808;DHT22;2930;42.678;23.312;2022-12-10T14:13:38;15.60;83.00
5808;DHT22;2930;42.678;23.312;2022-12-10T14:16:05;15.60;83.20
5808;DHT22;2930;42.678;23.312;2022-12-10T14:18:35;15.60;83.30
5808;DHT22;2930;42.678;23.312;2022-12-10T14:21:06;15.40;83.60
5808;DHT22;2930;42.678;23.312;2022-12-10T14:23:33;15.30;83.80
5808;DHT22;2930;42.678;23.312;2022-12-10T14:28:31;15.40;83.80
5808;DHT22;2930;42.678;23.312;2022-12-10T14:30:59;15.40;83.80
5808;DHT22;2930;42.678;23.312;2022-12-10T14:33:25;15.30;83.40
5808;DHT22;2930;42.678;23.312;2022-12-10T14:35:52;15.30;82.90
5808;DHT22;2930;42.678;23.312;2022-12-10T14:38:31;15.30;83.60
5808;DHT22;2930;42.678;23.312;2022-12-10T14:40:58;15.30;83.00
5808;DHT22;2930;42.678;23.312;2022-12-10T14:43:36;15.30;82.90
5808;DHT22;2930;42.678;23.312;2022-12-10T14:46:04;15.30;82.50
5808;DHT22;2930;42.678;23.312;2022-12-10T14:48:30;15.30;82.50
5808;DHT22;2930;42.678;23.312;2022-12-10T14:51:06;15.30;82.30
5808;DHT22;2930;42.678;23.312;2022-12-10T14:53:35;15.20;82.40
5808;DHT22;2930;42.678;23.312;2022-12-10T14:56:03;15.20;82.20
5808;DHT22;2930;42.678;23.312;2022-12-10T14:58:48;15.30;82.80
5808;DHT22;2930;42.678;23.312;2022-12-10T15:01:33;15.30;82.50
5808;DHT22;2930;42.678;23.312;2022-12-10T15:04:02;15.20;82.60
5808;DHT22;2930;42.678;23.312;2022-12-10T15:06:31;15.20;83.00
5808;DHT22;2930;42.678;23.312;2022-12-10T15:08:58;15.30;83.40
5808;DHT22;2930;42.678;23.312;2022-12-10T15:11:26;15.20;83.30
5808;DHT22;2930;42.678;23.312;2022-12-10T15:13:58;15.20;83.60
5808;DHT22;2930;42.678;23.312;2022-12-10T15:18:54;15.20;83.90
5808;DHT22;2930;42.678;23.312;2022-12-10T15:21:24;15.20;84.10
5808;DHT22;2930;42.678;23.312;2022-12-10T15:23:52;15.20;83.90
5808;DHT22;2930;42.678;23.312;2022-12-10T15:26:33;15.10;84.10
5808;DHT22;2930;42.678;23.312;2022-12-10T15:32:00;15.10;84.10
5808;DHT22;2930;42.678;23.312;2022-12-10T15:34:29;15.10;83.80
5808;DHT22;2930;42.678;23.312;2022-12-10T15:37:02;15.00;83.50
5808;DHT22;2930;42.678;23.312;2022-12-10T15:45:11;14.90;83.50
5808;DHT22;2930;42.678;23.312;2022-12-10T15:47:40;15.00;83.90
5808;DHT22;2930;42.678;23.312;2022-12-10T15:50:06;14.90;83.70
5808;DHT22;2930;42.678;23.312;2022-12-10T15:52:32;14.90;84.70
5808;DHT22;2930;42.678;23.312;2022-12-10T15:54:58;14.90;84.40
5808;DHT22;2930;42.678;23.312;2022-12-10T15:57:28;14.90;84.10
5808;DHT22;2930;42.678;23.312;2022-12-10T15:59:58;14.90;84.90
5808;DHT22;2930;42.678;23.312;2022-12-10T16:02:37;14.80;84.70
5808;DHT22;2930;42.678;23.312;2022-12-10T16:05:24;14.80;84.10
5808;DHT22;2930;42.678;23.312;2022-12-10T16:07:53;14.80;85.10
5808;DHT22;2930;42.678;23.312;2022-12-10T16:10:20;14.70;85.00
5808;DHT22;2930;42.678;23.312;2022-12-10T16:12:49;14.70;84.80
5808;DHT22;2930;42.678;23.312;2022-12-10T16:15:21;14.70;85.30
5808;DHT22;2930;42.678;23.312;2022-12-10T16:17:48;14.60;84.70
5808;DHT22;2930;42.678;23.312;2022-12-10T16:20:25;14.60;84.50
5808;DHT22;2930;42.678;23.312;2022-12-10T16:22:52;14.60;85.10
5808;DHT22;2930;42.678;23.312;2022-12-10T16:25:18;14.60;84.60
5808;DHT22;2930;42.678;23.312;2022-12-10T16:27:44;14.50;84.40
5808;DHT22;2930;42.678;23.312;2022-12-10T16:30:19;14.50;84.60
5808;DHT22;2930;42.678;23.312;2022-12-10T16:32:45;14.50;84.30
5808;DHT22;2930;42.678;23.312;2022-12-10T16:35:11;14.50;84.70
5808;DHT22;2930;42.678;23.312;2022-12-10T16:37:46;14.50;84.30
5808;DHT22;2930;42.678;23.312;2022-12-10T16:40:15;14.50;85.70
5808;DHT22;2930;42.678;23.312;2022-12-10T16:42:42;14.50;85.40
5808;DHT22;2930;42.678;23.312;2022-12-10T16:47:47;14.50;85.00
5808;DHT22;2930;42.678;23.312;2022-12-10T16:50:14;14.40;84.80
5808;DHT22;2930;42.678;23.312;2022-12-10T16:52:41;14.40;84.60
5808;DHT22;2930;42.678;23.312;2022-12-10T16:55:11;14.40;84.60
5808;DHT22;2930;42.678;23.312;2022-12-10T16:57:37;14.40;84.60
5808;DHT22;2930;42.678;23.312;2022-12-10T17:00:06;14.40;84.30
5808;DHT22;2930;42.678;23.312;2022-12-10T17:02:31;14.40;85.30
5808;DHT22;2930;42.678;23.312;2022-12-10T17:04:57;14.40;84.60
5808;DHT22;2930;42.678;23.312;2022-12-10T17:07:23;14.30;84.30
5808;DHT22;2930;42.678;23.312;2022-12-10T17:09:48;14.30;85.60
5808;DHT22;2930;42.678;23.312;2022-12-10T17:12:14;14.30;85.50
5808;DHT22;2930;42.678;23.312;2022-12-10T17:14:41;14.30;85.10
5808;DHT22;2930;42.678;23.312;2022-12-10T17:17:11;14.30;84.60
5808;DHT22;2930;42.678;23.312;2022-12-10T17:19:38;14.30;84.80
5808;DHT22;2930;42.678;23.312;2022-12-10T17:22:08;14.30;85.20
5808;DHT22;2930;42.678;23.312;2022-12-10T17:24:34;14.30;85.40
5808;DHT22;2930;42.678;23.312;2022-12-10T17:27:20;14.30;85.00
5808;DHT22;2930;42.678;23.312;2022-12-10T17:29:46;14.30;85.30
5808;DHT22;2930;42.678;23.312;2022-12-10T17:32:20;14.30;86.00
5808;DHT22;2930;42.678;23.312;2022-12-10T17:34:46;14.20;85.40
5808;DHT22;2930;42.678;23.312;2022-12-10T17:37:15;14.20;86.00
5808;DHT22;2930;42.678;23.312;2022-12-10T17:39:41;14.20;86.30
5808;DHT22;2930;42.678;23.312;2022-12-10T17:42:08;14.10;86.20
5808;DHT22;2930;42.678;23.312;2022-12-10T17:44:34;14.10;86.10
5808;DHT22;2930;42.678;23.312;2022-12-10T17:47:00;14.10;86.80
5808;DHT22;2930;42.678;23.312;2022-12-10T17:49:27;14.00;86.50
5808;DHT22;2930;42.678;23.312;2022-12-10T17:51:55;14.00;86.60
5808;DHT22;2930;42.678;23.312;2022-12-10T17:54:25;13.90;86.50
5808;DHT22;2930;42.678;23.312;2022-12-10T17:56:51;13.80;86.40
5808;DHT22;2930;42.678;23.312;2022-12-10T17:59:17;13.70;87.00
5808;DHT22;2930;42.678;23.312;2022-12-10T18:01:42;13.70;87.40
5808;DHT22;2930;42.678;23.312;2022-12-10T18:04:08;13.60;87.30
5808;DHT22;2930;42.678;23.312;2022-12-10T18:06:34;13.60;86.80
5808;DHT22;2930;42.678;23.312;2022-12-10T18:09:01;13.60;87.10
5808;DHT22;2930;42.678;23.312;2022-12-10T18:11:32;13.60;86.50
5808;DHT22;2930;42.678;23.312;2022-12-10T18:13:59;13.50;86.40
5808;DHT22;2930;42.678;23.312;2022-12-10T18:16:29;13.50;86.10
5808;DHT22;2930;42.678;23.312;2022-12-10T18:18:56;13.50;85.80
5808;DHT22;2930;42.678;23.312;2022-12-10T18:21:23;13.50;85.80
5808;DHT22;2930;42.678;23.312;2022-12-10T18:23:49;13.50;85.80
5808;DHT22;2930;42.678;23.312;2022-12-10T18:26:20;13.50;85.70
5808;DHT22;2930;42.678;23.312;2022-12-10T18:28:58;13.50;85.80